createdAt,value
2017-11-10T00:01:59.261Z,44.20
2017-11-10T00:04:26.876Z,42.87
2017-11-10T00:06:54.403Z,43.57
2017-11-10T00:09:22.007Z,46.77
2017-11-10T00:11:49.538Z,44.70
2017-11-10T00:14:17.072Z,38.17
2017-11-10T00:16:44.662Z,38.40
2017-11-10T00:19:12.198Z,44.37
2017-11-10T00:21:39.742Z,36.50
2017-11-10T00:24:07.297Z,42.30
2017-11-10T00:26:34.829Z,42.87
2017-11-10T00:29:02.358Z,39.70
2017-11-10T00:31:29.946Z,40.90
2017-11-10T00:33:57.590Z,44.47
2017-11-10T00:36:25.085Z,38.73
2017-11-10T00:38:52.616Z,37.70
2017-11-10T00:41:20.105Z,41.70
2017-11-10T00:43:47.593Z,40.60
2017-11-10T00:46:15.160Z,51.23
2017-11-10T00:48:42.648Z,43.93
2017-11-10T00:51:10.147Z,41.63
2017-11-10T00:53:37.690Z,38.60
2017-11-10T00:56:05.192Z,38.63
2017-11-10T00:58:32.773Z,37.50
2017-11-10T01:01:00.293Z,50.03
2017-11-10T01:03:27.777Z,39.37
2017-11-10T01:05:55.327Z,45.80
2017-11-10T01:08:22.868Z,43.20
2017-11-10T01:10:50.354Z,36.90
2017-11-10T01:13:17.848Z,43.80
2017-11-10T01:15:45.384Z,50.57
2017-11-10T01:18:12.872Z,40.17
2017-11-10T01:20:40.357Z,38.27
2017-11-10T01:23:07.942Z,38.20
2017-11-10T01:25:35.432Z,38.30
2017-11-10T01:28:02.944Z,41.03
2017-11-10T01:30:30.468Z,39.23
2017-11-10T01:32:57.965Z,39.70
2017-11-10T01:35:25.532Z,40.40
2017-11-10T01:37:53.049Z,39.57
2017-11-10T01:40:20.644Z,38.03
2017-11-10T01:42:48.131Z,38.97
2017-11-10T01:45:17.449Z,36.20
2017-11-10T01:47:44.967Z,42.87
2017-11-10T01:50:12.473Z,38.87
2017-11-10T01:52:39.980Z,42.33
2017-11-10T01:55:07.541Z,41.43
2017-11-10T01:57:35.037Z,43.43
2017-11-10T02:00:02.533Z,41.47
2017-11-10T02:02:30.065Z,43.27
2017-11-10T02:04:57.556Z,39.03
2017-11-10T02:07:25.049Z,40.57
2017-11-10T02:09:52.584Z,40.53
2017-11-10T02:12:20.121Z,41.17
2017-11-10T02:14:47.626Z,43.83
2017-11-10T02:17:15.112Z,40.60
2017-11-10T02:19:42.651Z,39.57
2017-11-10T02:22:10.181Z,39.23
2017-11-10T02:24:37.736Z,38.90
2017-11-10T02:27:05.407Z,41.90
2017-11-10T02:29:32.907Z,37.80
2017-11-10T02:32:00.417Z,35.73
2017-11-10T02:34:27.952Z,37.77
2017-11-10T02:36:55.445Z,36.87
2017-11-10T02:39:27.981Z,34.73
2017-11-10T02:41:55.475Z,36.63
2017-11-10T02:44:22.971Z,34.43
2017-11-10T02:46:50.506Z,34.20
2017-11-10T02:49:17.997Z,34.13
2017-11-10T02:51:45.486Z,32.90
2017-11-10T02:54:13.028Z,33.03
2017-11-10T02:56:40.542Z,34.77
2017-11-10T02:59:08.037Z,34.70
2017-11-10T03:01:35.570Z,35.80
2017-11-10T03:04:03.066Z,32.13
2017-11-10T03:06:30.649Z,34.47
2017-11-10T03:08:58.198Z,33.80
2017-11-10T03:11:25.689Z,33.47
2017-11-10T03:13:53.179Z,32.60
2017-11-10T03:16:20.703Z,32.20
2017-11-10T03:18:48.189Z,30.20
2017-11-10T03:21:15.702Z,30.50
2017-11-10T03:23:43.357Z,31.80
2017-11-10T03:26:10.920Z,33.67
2017-11-10T03:28:38.415Z,30.33
2017-11-10T03:31:05.946Z,29.17
2017-11-10T03:33:33.502Z,32.27
2017-11-10T03:36:00.997Z,28.83
2017-11-10T03:38:28.626Z,27.67
2017-11-10T03:40:56.154Z,31.73
2017-11-10T03:43:23.646Z,32.30
2017-11-10T03:45:51.185Z,32.00
2017-11-10T03:48:18.683Z,33.97
2017-11-10T03:50:46.173Z,30.10
2017-11-10T03:53:13.697Z,32.47
2017-11-10T03:55:41.187Z,31.77
2017-11-10T03:58:08.784Z,28.70
2017-11-10T04:00:36.347Z,30.90
2017-11-10T04:03:03.905Z,28.77
2017-11-10T04:05:31.403Z,30.30
2017-11-10T04:07:59.024Z,27.60
2017-11-10T04:10:26.527Z,28.53
2017-11-10T04:12:54.026Z,30.27
2017-11-10T04:15:21.560Z,27.80
2017-11-10T04:17:49.069Z,28.60
2017-11-10T04:20:16.617Z,28.60
2017-11-10T04:22:44.152Z,28.33
2017-11-10T04:25:12.936Z,28.97
2017-11-10T04:27:40.424Z,28.10
2017-11-10T04:30:07.976Z,31.67
2017-11-10T04:32:35.471Z,28.07
2017-11-10T04:35:02.993Z,28.63
2017-11-10T04:37:30.522Z,29.83
2017-11-10T04:39:58.020Z,30.27
2017-11-10T04:42:25.572Z,29.77
2017-11-10T04:44:53.186Z,31.20
2017-11-10T04:47:20.787Z,32.60
2017-11-10T04:49:48.283Z,31.90
2017-11-10T04:52:15.840Z,29.70
2017-11-10T04:54:43.364Z,29.60
2017-11-10T04:57:10.852Z,34.00
2017-11-10T04:59:38.373Z,31.80
2017-11-10T05:02:05.864Z,31.97
2017-11-10T05:04:33.393Z,43.60
2017-11-10T05:07:00.917Z,30.17
2017-11-10T05:09:28.432Z,34.53
2017-11-10T05:11:55.924Z,40.77
2017-11-10T05:14:23.452Z,34.50
2017-11-10T05:16:50.962Z,35.93
2017-11-10T05:19:18.579Z,33.90
2017-11-10T05:21:46.313Z,36.90
2017-11-10T05:24:13.805Z,38.10
2017-11-10T05:26:41.299Z,41.00
2017-11-10T05:29:08.839Z,35.13
2017-11-10T05:31:36.329Z,46.93
2017-11-10T05:34:03.835Z,38.00
2017-11-10T05:36:31.374Z,34.80
2017-11-10T05:38:58.868Z,33.73
2017-11-10T05:41:26.367Z,31.63
2017-11-10T05:43:53.921Z,35.40
2017-11-10T05:46:21.414Z,36.07
2017-11-10T05:48:48.905Z,38.70
2017-11-10T05:51:16.448Z,36.70
2017-11-10T05:53:43.941Z,36.90
2017-11-10T05:56:11.433Z,33.97
2017-11-10T05:58:38.949Z,41.20
2017-11-10T06:01:07.248Z,34.23
2017-11-10T06:03:34.786Z,31.70
2017-11-10T06:06:02.280Z,33.67
2017-11-10T06:08:29.773Z,32.63
2017-11-10T06:10:57.306Z,34.00
2017-11-10T06:13:24.798Z,33.57
2017-11-10T06:15:52.305Z,35.03
2017-11-10T06:18:19.974Z,33.73
2017-11-10T06:20:47.479Z,32.20
2017-11-10T06:23:14.987Z,37.00
2017-11-10T06:25:42.542Z,33.10
2017-11-10T06:28:10.060Z,36.47
2017-11-10T06:30:37.585Z,35.57
2017-11-10T06:33:05.102Z,35.37
2017-11-10T06:35:32.690Z,34.60
2017-11-10T06:38:00.349Z,64.93
2017-11-10T06:40:27.907Z,33.37
2017-11-10T06:42:55.402Z,32.60
2017-11-10T06:45:22.950Z,34.40
2017-11-10T06:47:50.443Z,35.47
2017-11-10T06:50:17.951Z,31.57
2017-11-10T06:52:45.488Z,32.47
2017-11-10T06:55:12.977Z,35.03
2017-11-10T06:57:40.534Z,31.80
2017-11-10T07:00:08.053Z,31.70
2017-11-10T07:02:35.548Z,34.20
2017-11-10T07:05:03.048Z,32.03
2017-11-10T07:07:30.670Z,37.00
2017-11-10T07:09:58.229Z,31.90
2017-11-10T07:12:25.726Z,33.57
2017-11-10T07:14:53.266Z,32.17
2017-11-10T07:17:20.847Z,33.10
2017-11-10T07:19:48.344Z,31.63
2017-11-10T07:22:15.898Z,32.70
2017-11-10T07:24:43.481Z,36.80
2017-11-10T07:27:10.970Z,27.90
2017-11-10T07:29:38.585Z,32.60
2017-11-10T07:32:06.072Z,29.17
2017-11-10T07:34:33.805Z,32.73
2017-11-10T07:37:01.300Z,32.27
2017-11-10T07:39:28.818Z,30.20
2017-11-10T07:41:56.352Z,29.20
2017-11-10T07:44:23.940Z,33.30
2017-11-10T07:46:51.451Z,31.00
2017-11-10T07:49:19.164Z,28.27
2017-11-10T07:51:46.676Z,28.60
2017-11-10T07:54:14.164Z,29.57
2017-11-10T07:56:41.848Z,32.40
2017-11-10T07:59:09.336Z,28.40
2017-11-10T08:01:36.849Z,35.10
2017-11-10T08:04:04.433Z,29.97
2017-11-10T08:06:31.937Z,31.97
2017-11-10T08:08:59.432Z,28.43
2017-11-10T08:11:26.972Z,29.47
2017-11-10T08:13:54.470Z,29.53
2017-11-10T08:16:21.969Z,31.40
2017-11-10T08:18:49.510Z,32.77
2017-11-10T08:21:17.011Z,27.63
2017-11-10T08:23:44.587Z,29.57
2017-11-10T08:26:12.141Z,29.20
2017-11-10T08:28:39.687Z,27.50
2017-11-10T08:31:07.187Z,27.70
2017-11-10T08:33:34.678Z,27.70
2017-11-10T08:36:02.192Z,23.73
2017-11-10T08:38:29.687Z,26.83
2017-11-10T08:40:57.187Z,28.87
2017-11-10T08:43:24.753Z,28.57
2017-11-10T08:45:52.326Z,25.40
2017-11-10T08:48:19.874Z,24.30
2017-11-10T08:50:47.533Z,27.17
2017-11-10T08:53:15.028Z,25.73
2017-11-10T08:55:42.514Z,23.47
2017-11-10T08:58:10.198Z,24.00
2017-11-10T09:00:37.695Z,21.90
2017-11-10T09:03:05.209Z,24.83
2017-11-10T09:05:32.735Z,25.37
2017-11-10T09:08:00.221Z,28.60
2017-11-10T09:10:27.716Z,24.53
2017-11-10T09:12:55.356Z,27.30
2017-11-10T09:15:22.852Z,25.47
2017-11-10T09:17:50.392Z,26.60
2017-11-10T09:20:17.936Z,26.63
2017-11-10T09:22:45.463Z,27.20
2017-11-10T09:25:12.974Z,26.07
2017-11-10T09:27:40.514Z,26.53
2017-11-10T09:30:18.512Z,25.20
2017-11-10T09:32:47.973Z,25.30
2017-11-10T09:35:21.069Z,29.43
2017-11-10T09:37:54.419Z,23.47
2017-11-10T09:40:27.634Z,24.37
2017-11-10T09:46:22.823Z,22.40
2017-11-10T09:48:56.000Z,24.20
2017-11-10T09:51:29.205Z,21.20
2017-11-10T09:54:02.399Z,23.20
2017-11-10T09:59:37.384Z,23.50
2017-11-10T10:02:14.810Z,22.27
2017-11-10T10:04:42.340Z,19.77
2017-11-10T10:07:11.329Z,20.47
2017-11-10T10:09:40.607Z,22.00
2017-11-10T10:12:13.880Z,20.27
2017-11-10T10:14:43.302Z,21.90
2017-11-10T10:17:12.757Z,20.30
2017-11-10T10:19:45.999Z,21.33
2017-11-10T10:22:14.297Z,18.60
2017-11-10T10:24:41.806Z,19.50
2017-11-10T10:27:09.341Z,19.13
2017-11-10T10:29:36.829Z,20.50
2017-11-10T10:32:04.323Z,20.87
2017-11-10T10:34:31.869Z,18.00
2017-11-10T10:36:59.361Z,21.50
2017-11-10T10:39:26.864Z,20.47
2017-11-10T10:41:54.430Z,19.50
2017-11-10T10:44:21.938Z,16.57
2017-11-10T10:46:49.443Z,17.07
2017-11-10T10:49:16.991Z,16.83
2017-11-10T10:51:44.561Z,17.53
2017-11-10T10:54:12.117Z,18.23
2017-11-10T10:56:39.663Z,18.37
2017-11-10T10:59:07.157Z,17.90
2017-11-10T11:01:34.692Z,20.70
2017-11-10T11:04:02.237Z,19.10
2017-11-10T11:06:29.736Z,17.10
2017-11-10T11:08:57.230Z,17.73
2017-11-10T11:11:24.783Z,17.37
2017-11-10T11:13:52.272Z,16.60
2017-11-10T11:16:19.858Z,19.20
2017-11-10T11:18:47.394Z,16.27
2017-11-10T11:21:14.877Z,17.90
2017-11-10T11:23:42.378Z,17.80
2017-11-10T11:26:09.981Z,20.00
2017-11-10T11:28:37.480Z,15.43
2017-11-10T11:31:04.993Z,17.33
2017-11-10T11:33:32.550Z,19.00
2017-11-10T11:36:00.231Z,17.30
2017-11-10T11:38:27.725Z,15.70
2017-11-10T11:40:55.252Z,16.30
2017-11-10T11:43:22.772Z,16.90
2017-11-10T11:45:50.381Z,16.77
2017-11-10T11:48:17.942Z,17.10
2017-11-10T11:50:45.490Z,14.17
2017-11-10T11:53:12.985Z,22.30
2017-11-10T11:55:40.505Z,16.27
2017-11-10T11:58:08.057Z,17.00
2017-11-10T12:00:35.618Z,14.83
2017-11-10T12:03:03.169Z,16.27
2017-11-10T12:05:30.738Z,18.70
2017-11-10T12:07:58.236Z,14.80
2017-11-10T12:10:25.729Z,16.03
2017-11-10T12:12:53.301Z,15.20
2017-11-10T12:15:20.805Z,14.00
2017-11-10T12:17:48.298Z,14.90
2017-11-10T12:20:15.883Z,13.97
2017-11-10T12:22:43.373Z,13.23
2017-11-10T12:25:10.896Z,16.47
2017-11-10T12:27:38.466Z,18.97
2017-11-10T12:30:05.961Z,15.07
2017-11-10T12:32:33.477Z,20.13
2017-11-10T12:35:01.141Z,14.30
2017-11-10T12:37:28.637Z,14.80
2017-11-10T12:39:56.285Z,13.80
2017-11-10T12:42:23.825Z,17.90
2017-11-10T12:44:51.385Z,15.93
2017-11-10T12:47:18.876Z,16.70
2017-11-10T12:49:46.396Z,15.70
2017-11-10T12:52:13.893Z,13.20
2017-11-10T12:54:41.376Z,14.50
2017-11-10T12:57:08.944Z,15.60
2017-11-10T12:59:36.433Z,16.03
2017-11-10T13:02:03.922Z,18.00
2017-11-10T13:04:31.571Z,17.27
2017-11-10T13:06:59.063Z,16.87
2017-11-10T13:09:26.552Z,17.20
2017-11-10T13:11:54.120Z,16.13
2017-11-10T13:14:21.614Z,17.93
2017-11-10T13:16:49.136Z,17.17
2017-11-10T13:19:16.674Z,16.40
2017-11-10T13:21:44.176Z,15.33
2017-11-10T13:24:11.670Z,16.53
2017-11-10T13:26:39.192Z,16.90
2017-11-10T13:29:06.688Z,15.00
2017-11-10T13:31:34.293Z,15.17
2017-11-10T13:34:01.805Z,15.30
2017-11-10T13:36:29.306Z,14.77
2017-11-10T13:38:56.883Z,14.17
2017-11-10T13:41:24.376Z,14.50
2017-11-10T13:43:51.865Z,13.03
2017-11-10T13:46:19.400Z,13.80
2017-11-10T13:48:46.916Z,12.57
2017-11-10T13:51:14.404Z,14.83
2017-11-10T13:53:41.939Z,11.87
2017-11-10T13:56:09.440Z,11.10
2017-11-10T13:58:36.928Z,11.83
2017-11-10T14:01:04.587Z,15.03
2017-11-10T14:03:32.085Z,11.13
2017-11-10T14:05:59.593Z,12.60
2017-11-10T14:08:27.170Z,12.03
2017-11-10T14:10:54.670Z,11.57
2017-11-10T14:13:22.382Z,12.57
2017-11-10T14:15:49.885Z,11.13
2017-11-10T14:18:17.383Z,11.80
2017-11-10T14:20:44.931Z,13.03
2017-11-10T14:23:12.434Z,10.93
2017-11-10T14:25:39.924Z,12.03
2017-11-10T14:28:07.451Z,11.47
2017-11-10T14:30:34.946Z,11.40
2017-11-10T14:33:02.433Z,11.30
2017-11-10T14:35:29.978Z,11.47
2017-11-10T14:37:57.469Z,9.90
2017-11-10T14:40:24.959Z,12.10
2017-11-10T14:42:52.468Z,12.10
2017-11-10T14:45:20.017Z,10.50
2017-11-10T14:47:47.607Z,10.90
2017-11-10T14:50:15.110Z,11.40
2017-11-10T14:52:42.654Z,12.67
2017-11-10T14:55:10.152Z,16.03
2017-11-10T14:57:37.641Z,11.60
2017-11-10T15:00:05.288Z,12.83
2017-11-10T15:02:32.781Z,11.43
2017-11-10T15:05:00.312Z,12.43
2017-11-10T15:07:27.835Z,12.23
2017-11-10T15:09:55.328Z,11.97
2017-11-10T15:12:22.825Z,12.73
2017-11-10T15:14:50.343Z,9.20
2017-11-10T15:17:17.836Z,12.20
2017-11-10T15:19:45.465Z,12.70
2017-11-10T15:22:12.956Z,13.27
2017-11-10T15:24:40.458Z,13.83
2017-11-10T15:27:07.990Z,12.90
2017-11-10T15:29:35.489Z,13.60
2017-11-10T15:32:02.978Z,11.33
2017-11-10T15:34:30.513Z,13.93
2017-11-10T15:36:58.075Z,10.27
2017-11-10T15:39:25.574Z,13.77
2017-11-10T15:41:53.289Z,10.87
2017-11-10T15:44:20.810Z,10.20
2017-11-10T15:46:48.301Z,11.80
2017-11-10T15:49:15.896Z,11.20
2017-11-10T15:51:43.398Z,10.40
2017-11-10T15:54:10.905Z,11.60
2017-11-10T15:56:38.456Z,12.70
2017-11-10T15:59:05.954Z,10.53
2017-11-10T16:01:33.489Z,10.10
2017-11-10T16:04:01.134Z,11.10
2017-11-10T16:06:28.625Z,11.60
2017-11-10T16:08:56.124Z,9.57
2017-11-10T16:11:23.656Z,10.30
2017-11-10T16:13:51.161Z,10.13
2017-11-10T16:16:18.659Z,9.83
2017-11-10T16:18:46.196Z,11.43
2017-11-10T16:21:13.740Z,9.70
2017-11-10T16:23:41.236Z,10.03
2017-11-10T16:26:08.766Z,10.30
2017-11-10T16:28:36.249Z,9.20
2017-11-10T16:31:03.741Z,10.37
2017-11-10T16:33:31.271Z,10.00
2017-11-10T16:35:58.755Z,9.87
2017-11-10T16:38:26.253Z,10.20
2017-11-10T16:40:53.779Z,10.07
2017-11-10T16:43:21.273Z,9.27
2017-11-10T16:45:48.763Z,10.43
2017-11-10T16:48:16.299Z,9.50
2017-11-10T16:50:43.793Z,8.10
2017-11-10T16:53:11.277Z,10.23
2017-11-10T16:55:38.793Z,8.90
2017-11-10T16:58:06.282Z,9.50
2017-11-10T17:00:33.868Z,10.20
2017-11-10T17:03:01.418Z,10.57
2017-11-10T17:05:28.911Z,8.80
2017-11-10T17:07:56.438Z,8.80
2017-11-10T17:10:24.022Z,8.53
2017-11-10T17:12:51.589Z,8.50
2017-11-10T17:15:19.065Z,8.37
2017-11-10T17:17:46.782Z,8.33
2017-11-10T17:20:14.258Z,9.03
2017-11-10T17:22:41.796Z,8.00
2017-11-10T17:25:09.357Z,9.07
2017-11-10T17:27:36.847Z,8.30
2017-11-10T17:30:04.347Z,12.20
2017-11-10T17:32:31.868Z,8.63
2017-11-10T17:34:59.412Z,10.27
2017-11-10T17:37:26.957Z,10.63
2017-11-10T17:39:54.497Z,9.77
2017-11-10T17:42:21.999Z,10.20
2017-11-10T17:44:49.528Z,7.57
2017-11-10T17:47:17.058Z,8.80
2017-11-10T17:49:44.550Z,6.83
2017-11-10T17:52:12.040Z,5.90
2017-11-10T17:54:39.577Z,5.63
2017-11-10T17:57:07.066Z,5.90
2017-11-10T17:59:34.554Z,4.70
2017-11-10T18:02:02.154Z,4.23
2017-11-10T18:04:29.675Z,4.17
2017-11-10T18:06:57.162Z,3.23
2017-11-10T18:09:24.690Z,3.53
2017-11-10T18:11:52.182Z,4.60
2017-11-10T18:14:19.669Z,4.77
2017-11-10T18:16:47.202Z,5.27
2017-11-10T18:19:14.694Z,4.77
2017-11-10T18:21:42.179Z,4.00
2017-11-10T18:24:09.693Z,4.80
2017-11-10T18:26:37.189Z,5.67
2017-11-10T18:29:04.784Z,4.97
2017-11-10T18:31:32.332Z,4.83
2017-11-10T18:33:59.888Z,4.50
2017-11-10T18:36:27.368Z,4.40
2017-11-10T18:38:54.962Z,4.43
2017-11-10T18:41:22.485Z,4.40
2017-11-10T18:43:50.028Z,2.90
2017-11-10T18:46:17.553Z,4.30
2017-11-10T18:48:45.985Z,4.00
2017-11-10T18:51:13.482Z,4.47
2017-11-10T18:53:41.768Z,4.10
2017-11-10T18:56:09.310Z,3.43
2017-11-10T18:58:36.808Z,3.27
2017-11-10T19:01:04.396Z,3.47
2017-11-10T19:03:31.922Z,3.70
2017-11-10T19:05:59.514Z,4.03
2017-11-10T19:08:26.999Z,3.63
2017-11-10T19:10:54.544Z,3.20
2017-11-10T19:13:22.031Z,3.60
2017-11-10T19:15:49.629Z,7.27
2017-11-10T19:18:17.162Z,6.80
2017-11-10T19:20:44.648Z,5.83
2017-11-10T19:23:12.136Z,6.00
2017-11-10T19:25:39.761Z,4.30
2017-11-10T19:28:07.254Z,4.77
2017-11-10T19:30:34.779Z,5.00
2017-11-10T19:33:02.300Z,4.97
2017-11-10T19:35:29.791Z,5.50
2017-11-10T19:37:57.477Z,3.87
2017-11-10T19:40:25.058Z,3.87
2017-11-10T19:42:52.615Z,5.10
2017-11-10T19:45:20.162Z,5.03
2017-11-10T19:47:47.815Z,6.63
2017-11-10T19:50:15.377Z,4.93
2017-11-10T19:52:42.947Z,9.60
2017-11-10T19:55:10.659Z,12.40
2017-11-10T19:57:38.465Z,4.20
2017-11-10T20:00:06.230Z,3.03
2017-11-10T20:02:34.097Z,5.30
2017-11-10T20:05:01.944Z,5.80
2017-11-10T20:07:29.725Z,5.03
2017-11-10T20:09:57.452Z,5.07
2017-11-10T20:12:25.254Z,6.20
2017-11-10T20:14:53.249Z,4.10
2017-11-10T20:17:21.088Z,2.80
2017-11-10T20:19:48.943Z,3.20
2017-11-10T20:22:16.718Z,5.10
2017-11-10T20:24:44.484Z,3.60
2017-11-10T20:27:12.087Z,4.53
2017-11-10T20:29:39.710Z,4.73
2017-11-10T20:32:07.280Z,3.87
2017-11-10T20:34:34.880Z,4.80
2017-11-10T20:37:02.386Z,6.10
2017-11-10T20:39:30.025Z,4.20
2017-11-10T20:41:57.603Z,4.70
2017-11-10T20:44:25.145Z,3.87
2017-11-10T20:46:52.733Z,9.50
2017-11-10T20:49:20.247Z,4.93
2017-11-10T20:51:47.841Z,6.23
2017-11-10T20:54:15.436Z,4.63
2017-11-10T20:56:42.941Z,4.50
2017-11-10T20:59:10.452Z,10.60
2017-11-10T21:01:38.010Z,7.17
2017-11-10T21:04:05.583Z,6.97
2017-11-10T21:06:33.145Z,5.20
2017-11-10T21:09:00.687Z,12.37
2017-11-10T21:11:28.212Z,10.13
2017-11-10T21:13:55.697Z,4.13
2017-11-10T21:16:23.305Z,5.00
2017-11-10T21:18:50.797Z,13.03
2017-11-10T21:21:18.276Z,3.60
2017-11-10T21:23:45.880Z,4.00
2017-11-10T21:26:13.452Z,7.90
2017-11-10T21:28:40.945Z,8.67
2017-11-10T21:31:08.555Z,4.47
2017-11-10T21:33:36.140Z,6.07
2017-11-10T21:36:03.707Z,5.10
2017-11-10T21:38:31.226Z,7.03
2017-11-10T21:40:58.815Z,7.13
2017-11-10T21:43:26.452Z,5.33
2017-11-10T21:45:53.943Z,4.10
2017-11-10T21:48:21.433Z,15.07
2017-11-10T21:50:49.303Z,9.20
2017-11-10T21:53:16.908Z,7.30
2017-11-10T21:55:44.406Z,12.20
2017-11-10T21:58:11.933Z,12.70
2017-11-10T22:00:39.421Z,6.37
2017-11-10T22:03:06.913Z,23.90
2017-11-10T22:05:34.454Z,5.07
2017-11-10T22:08:01.937Z,8.63
2017-11-10T22:10:29.426Z,13.90
2017-11-10T22:12:57.000Z,10.87
2017-11-10T22:15:24.476Z,4.43
2017-11-10T22:17:52.009Z,21.90
2017-11-10T22:20:19.492Z,7.90
2017-11-10T22:22:46.989Z,5.93
2017-11-10T22:25:14.523Z,5.30
2017-11-10T22:27:42.010Z,7.63
2017-11-10T22:30:09.494Z,7.90
2017-11-10T22:32:37.029Z,8.37
2017-11-10T22:35:04.518Z,5.63
2017-11-10T22:37:32.021Z,7.70
2017-11-10T22:39:59.561Z,2.23
2017-11-10T22:42:27.036Z,3.67
2017-11-10T22:44:54.519Z,3.40
2017-11-10T22:47:22.084Z,4.10
2017-11-10T22:49:49.561Z,3.03
2017-11-10T22:52:17.046Z,2.83
2017-11-10T22:54:44.565Z,2.30
2017-11-10T22:57:12.054Z,2.90
2017-11-10T22:59:39.679Z,4.80
2017-11-10T23:02:07.236Z,9.00
2017-11-10T23:04:34.779Z,3.63
2017-11-10T23:07:02.349Z,3.87
2017-11-10T23:09:29.831Z,3.60
2017-11-10T23:11:57.372Z,2.30
2017-11-10T23:14:24.852Z,3.90
2017-11-10T23:16:52.389Z,6.90
2017-11-10T23:19:19.901Z,11.33
2017-11-10T23:21:47.402Z,7.33
2017-11-10T23:24:14.919Z,7.43
2017-11-10T23:26:42.411Z,6.10
2017-11-10T23:29:09.893Z,2.73
2017-11-10T23:31:37.432Z,2.50
2017-11-10T23:34:04.921Z,2.57
2017-11-10T23:36:32.396Z,2.73
2017-11-10T23:39:00.024Z,13.53
2017-11-10T23:41:27.521Z,4.00
2017-11-10T23:43:55.000Z,3.97
2017-11-10T23:46:22.589Z,4.00
2017-11-10T23:48:50.065Z,3.67
2017-11-10T23:51:17.554Z,10.60
2017-11-10T23:53:45.056Z,3.80
2017-11-10T23:56:12.616Z,4.30
2017-11-10T23:58:41.196Z,4.27
